Eugene, OR (97401)

11:02 AM PDT on April 23, 2017 (GMT -0700)
Original Cal Young | | Change Station

Elev 423 ft 44.08 °N, 123.08 °W | Updated 6 seconds ago

Overcast
Overcast
55.7 °F
Feels Like 55.7 °F
N
0.0
Wind Variable Wind from SE
Gusts 0.0 mph

Today
High -- | Low -- °F
--% Chance of Precip.
Yesterday
High -- | Low -- °F
Precip. -- in
Pressure 29.97 in
Visibility 10.0 miles
Clouds Mostly Cloudy 2600 ft
Mostly Cloudy 6000 ft
Overcast 18000 ft
Dew Point 48 °F
Humidity 74%
Rainfall 0.00 in
Snow Depth Not available.
6:15 AM 8:06 PM
Waning Crescent, 10% visible
METAR KEUG 231754Z 22011G19KT 10SM BKN026 BKN060 OVC180 13/08 A2996 RMK AO2 RAB01E11 SLP147 P0000 60001 T01280078 10133 20089 58000
Pressure 29.97 in
Visibility 10.0 miles
Clouds Mostly Cloudy 2600 ft
Mostly Cloudy 6000 ft
Overcast 18000 ft
Dew Point 48 °F
Humidity 74%
Rainfall 0.00 in
Snow Depth Not available.
6:15 AM 8:06 PM
Waning Crescent, 10% visible
METAR KEUG 231754Z 22011G19KT 10SM BKN026 BKN060 OVC180 13/08 A2996 RMK AO2 RAB01E11 SLP147 P0000 60001 T01280078 10133 20089 58000

Get Severe Weather Alerts

Thanks for signing up!

Be on the lookout for a verification email in your inbox.

You'll start receiving the daily forecast at 8 AM.

×

10-Day Weather Forecast

Almanac

Astronomy

Apr. 23, 2017 Rise Set
Actual Time
Civil Twilight
Nautical Twilight
Astronomical Twilight
Moon
Length of Visible Light
Length of Day
Tomorrow will be .
, % of the Moon is Illuminated

Today's Extremes

State Highs State Lows

Community

WunderPhotos

WunderBlog® & News

Nearby

Air Quality

  Air Quality AQ Index Pollutant
Not available.

Snow Depth

Station Depth Elevation

Earthquake Activity

City Distance Mag. Time & Date
Minimum magnitude displayed is 2.5.

Coastal Water Temperatures

Place Temperature

Stations

Nearby Weather Stations

Station Location Temp. Windchill Dew Point Humidity Wind Precip. Elev Updated Type
                   

Watches & Warnings

There are currently no watches in effect.